Time;durP1;ratioP1;P1;durP2;ratioP2;P2;SDS_P1;SDS_P2;PMS_P1;PMS_P2;Temp;Humidity;BMP_temperature;BMP_pressure;BME280_temperature;BME280_humidity;BME280_pressure;Samples;Min_cycle;Max_cycle;Signal;HPM_P1;HPM_P2
2023/08/26 00:01:33;;;;;;;5.78;3.38;;;;;;;18.99;100.00;95441.13;4982241;28;24444;-81
2023/08/26 00:04:00;;;;;;;8.27;3.72;;;;;;;19.02;100.00;95430.28;4994069;28;24428;-80
2023/08/26 00:06:26;;;;;;;8.48;4.03;;;;;;;19.08;100.00;95427.06;4993485;28;24770;-81
2023/08/26 00:08:54;;;;;;;5.63;3.40;;;;;;;18.97;100.00;95429.94;4973981;28;24413;-80
2023/08/26 00:11:20;;;;;;;5.93;3.80;;;;;;;18.96;100.00;95420.44;4974362;28;24485;-81
2023/08/26 00:13:47;;;;;;;8.05;3.80;;;;;;;18.90;100.00;95435.00;4983898;28;24448;-80
2023/08/26 00:16:14;;;;;;;7.95;4.13;;;;;;;18.84;100.00;95428.56;4995271;28;24428;-81
2023/08/26 00:18:40;;;;;;;5.82;3.92;;;;;;;18.79;100.00;95430.00;4992025;28;24448;-81
2023/08/26 00:21:07;;;;;;;5.82;3.95;;;;;;;18.71;100.00;95441.28;4980100;28;24437;-81
2023/08/26 00:23:33;;;;;;;5.97;3.90;;;;;;;18.82;100.00;95435.78;4989711;28;24826;-81
2023/08/26 00:26:02;;;;;;;7.07;3.60;;;;;;;18.93;100.00;95436.50;4976682;28;24441;-81
2023/08/26 00:28:29;;;;;;;6.25;3.60;;;;;;;18.91;100.00;95434.03;4989807;28;24464;-81
2023/08/26 00:30:58;;;;;;;8.48;4.20;;;;;;;18.82;100.00;95437.56;4988097;28;24485;-82
2023/08/26 00:33:24;;;;;;;7.72;3.85;;;;;;;18.76;100.00;95440.81;4977351;28;25031;-82
2023/08/26 00:35:51;;;;;;;6.75;3.80;;;;;;;18.68;100.00;95427.63;4982544;28;24449;-81
2023/08/26 00:38:17;;;;;;;6.57;3.85;;;;;;;18.51;100.00;95431.94;4991369;28;24440;-81
2023/08/26 00:40:44;;;;;;;6.03;3.90;;;;;;;18.43;100.00;95442.34;4975918;28;24441;-81
2023/08/26 00:43:12;;;;;;;7.38;4.18;;;;;;;18.61;100.00;95440.50;4993942;28;24444;-81
2023/08/26 00:45:41;;;;;;;4.47;3.53;;;;;;;18.68;100.00;95444.16;4976531;28;24794;-83
2023/08/26 00:48:08;;;;;;;5.82;3.25;;;;;;;18.73;100.00;95454.25;4993747;28;24445;-82
2023/08/26 00:50:35;;;;;;;4.97;4.07;;;;;;;18.83;100.00;95465.44;4990345;28;24557;-82
2023/08/26 00:53:02;;;;;;;6.63;3.75;;;;;;;18.89;100.00;95432.53;4985465;28;24444;-83
2023/08/26 00:55:28;;;;;;;7.90;3.50;;;;;;;18.90;100.00;95413.19;4994922;28;24428;-82
2023/08/26 00:57:55;;;;;;;6.38;3.95;;;;;;;18.76;100.00;95432.94;4979347;28;24441;-83
2023/08/26 01:00:23;;;;;;;6.85;3.70;;;;;;;18.60;100.00;95436.25;4974928;28;24493;-83
2023/08/26 01:02:50;;;;;;;5.13;3.45;;;;;;;18.55;100.00;95444.59;4981311;28;24426;-82
2023/08/26 01:05:17;;;;;;;7.43;3.80;;;;;;;18.58;100.00;95451.34;4994604;28;24437;-82
2023/08/26 01:07:46;;;;;;;4.82;3.33;;;;;;;18.55;100.00;95460.31;4994386;28;24425;-82
2023/08/26 01:10:12;;;;;;;5.22;3.38;;;;;;;18.64;100.00;95471.69;4976931;28;24461;-82
2023/08/26 01:12:51;;;;;;;3.72;3.05;;;;;;;18.73;100.00;95475.25;4975510;28;24562;-82
2023/08/26 01:15:19;;;;;;;4.95;3.35;;;;;;;18.81;100.00;95475.28;4984968;28;24439;-83
2023/08/26 01:17:47;;;;;;;4.95;3.70;;;;;;;18.71;100.00;95475.38;4980574;28;25014;-82
2023/08/26 01:20:15;;;;;;;17.77;4.03;;;;;;;18.69;100.00;95487.81;4976900;28;24434;-82
2023/08/26 01:22:43;;;;;;;4.90;3.40;;;;;;;18.88;100.00;95494.69;4988258;28;24442;-82
2023/08/26 01:25:11;;;;;;;4.47;3.45;;;;;;;18.86;100.00;95494.00;4974922;28;24426;-82
2023/08/26 01:27:37;;;;;;;5.05;3.75;;;;;;;18.86;100.00;95473.84;4974304;28;24444;-82
2023/08/26 01:30:06;;;;;;;5.33;3.40;;;;;;;18.80;100.00;95471.00;4990493;28;24506;-82
2023/08/26 01:32:41;;;;;;;6.85;3.25;;;;;;;18.76;100.00;95461.78;4993457;28;24425;-82
2023/08/26 01:35:15;;;;;;;5.13;3.22;;;;;;;18.75;100.00;95457.53;4993386;28;24424;-82
2023/08/26 01:37:46;;;;;;;5.38;3.35;;;;;;;18.80;100.00;95465.75;4993316;28;24416;-83
2023/08/26 01:40:14;;;;;;;4.25;2.90;;;;;;;18.86;100.00;95476.47;4992628;28;24444;-82
2023/08/26 01:42:42;;;;;;;6.00;3.10;;;;;;;18.83;100.00;95491.69;4973427;28;24493;-82
2023/08/26 01:45:11;;;;;;;3.92;2.90;;;;;;;18.70;100.00;95499.13;4973668;28;24436;-82
2023/08/26 01:47:38;;;;;;;5.38;3.05;;;;;;;18.61;100.00;95482.47;4973646;28;24493;-83
2023/08/26 01:50:05;;;;;;;5.10;3.38;;;;;;;18.69;100.00;95493.06;4989662;28;24833;-81
2023/08/26 01:52:32;;;;;;;5.30;2.88;;;;;;;18.66;100.00;95498.59;4979150;28;24762;-82
2023/08/26 01:54:58;;;;;;;7.85;3.78;;;;;;;18.45;100.00;95511.22;4980414;28;24421;-84
2023/08/26 01:57:26;;;;;;;6.25;3.83;;;;;;;18.35;100.00;95506.03;4980606;28;24578;-82
2023/08/26 01:59:53;;;;;;;5.60;3.10;;;;;;;18.26;100.00;95505.16;4980069;28;24456;-82
2023/08/26 02:02:19;;;;;;;6.07;3.17;;;;;;;18.28;100.00;95497.97;4980476;28;24441;-83
2023/08/26 02:04:46;;;;;;;4.38;2.85;;;;;;;18.30;100.00;95500.44;4984083;28;24441;-82
2023/08/26 02:07:13;;;;;;;6.93;3.28;;;;;;;18.35;100.00;95498.16;5007489;28;24452;-82
2023/08/26 02:09:39;;;;;;;4.28;2.97;;;;;;;18.35;100.00;95504.25;4994205;28;24455;-83
2023/08/26 02:12:07;;;;;;;5.80;2.92;;;;;;;18.30;100.00;95498.63;4995580;28;24505;-82
2023/08/26 02:14:34;;;;;;;3.78;3.17;;;;;;;18.36;100.00;95512.94;4999317;28;24428;-82
2023/08/26 02:17:01;;;;;;;4.22;3.40;;;;;;;18.27;100.00;95508.59;4993183;28;24452;-84
2023/08/26 02:19:27;;;;;;;5.30;3.13;;;;;;;18.25;100.00;95510.56;4980015;28;24434;-82
2023/08/26 02:21:54;;;;;;;4.20;2.90;;;;;;;18.33;100.00;95503.56;4980478;28;24429;-82
2023/08/26 02:24:20;;;;;;;8.07;3.50;;;;;;;18.31;100.00;95510.75;4996470;28;25022;-82
2023/08/26 02:26:47;;;;;;;5.63;2.70;;;;;;;18.41;100.00;95504.63;5038166;23;24467;-80
2023/08/26 02:29:13;;;;;;;5.53;3.30;;;;;;;18.40;100.00;95497.75;4996276;28;24452;-81
2023/08/26 02:31:41;;;;;;;5.70;3.28;;;;;;;18.43;100.00;95497.41;4984503;28;24449;-81
2023/08/26 02:34:08;;;;;;;7.95;3.30;;;;;;;18.37;100.00;95488.38;4993313;28;24437;-81
2023/08/26 02:36:34;;;;;;;5.85;3.55;;;;;;;18.23;100.00;95486.28;4988786;28;24445;-83
2023/08/26 02:39:01;;;;;;;7.27;3.57;;;;;;;18.30;100.00;95501.25;4985651;28;24453;-83
2023/08/26 02:41:27;;;;;;;6.40;3.20;;;;;;;18.32;100.00;95506.34;4991288;28;24444;-83
2023/08/26 02:43:54;;;;;;;5.90;3.42;;;;;;;18.34;100.00;95512.25;4996720;28;24443;-83
2023/08/26 02:46:20;;;;;;;6.47;3.40;;;;;;;18.27;100.00;95508.59;4980854;28;24448;-83
2023/08/26 02:48:48;;;;;;;5.50;3.15;;;;;;;18.33;100.00;95505.38;4981894;28;24448;-82
2023/08/26 02:51:14;;;;;;;7.30;3.28;;;;;;;18.43;100.00;95516.63;4998884;28;24820;-82
2023/08/26 02:53:41;;;;;;;6.20;3.15;;;;;;;18.42;100.00;95512.31;4982094;28;24441;-82
2023/08/26 02:56:07;;;;;;;7.30;3.50;;;;;;;18.43;100.00;95508.75;4979429;28;24510;-83
2023/08/26 02:58:34;;;;;;;3.63;3.25;;;;;;;18.48;100.00;95500.41;4989386;28;24443;-84
2023/08/26 03:01:01;;;;;;;4.72;3.30;;;;;;;18.33;100.00;95508.00;4998937;28;24417;-82
2023/08/26 03:03:27;;;;;;;7.82;3.65;;;;;;;18.12;100.00;95511.72;4995470;28;24796;-83
2023/08/26 03:05:57;;;;;;;6.95;3.38;;;;;;;18.22;100.00;95513.47;4992567;28;24445;-82
2023/08/26 03:08:24;;;;;;;6.07;3.38;;;;;;;18.29;100.00;95511.91;4979607;28;24456;-85
2023/08/26 03:10:56;;;;;;;5.55;3.40;;;;;;;18.32;100.00;95507.19;4979745;28;24460;-83
2023/08/26 03:13:23;;;;;;;9.85;3.75;;;;;;;17.99;100.00;95527.00;4988063;28;24984;-82
2023/08/26 03:15:50;;;;;;;8.10;3.42;;;;;;;18.12;100.00;95519.59;4983919;28;24425;-83
2023/08/26 03:18:17;;;;;;;4.57;3.13;;;;;;;18.11;100.00;95525.81;4984093;28;24444;-83
2023/08/26 03:20:44;;;;;;;3.63;2.78;;;;;;;18.22;100.00;95519.53;4984101;28;24433;-83
2023/08/26 03:23:12;;;;;;;14.88;3.50;;;;;;;18.04;100.00;95530.00;4986103;28;24437;-82
2023/08/26 03:25:39;;;;;;;5.63;3.22;;;;;;;18.12;100.00;95527.44;4984775;28;24441;-84
2023/08/26 03:28:07;;;;;;;6.30;3.30;;;;;;;18.16;100.00;95533.22;4982624;28;24796;-82
2023/08/26 03:30:35;;;;;;;8.13;3.13;;;;;;;18.08;100.00;95528.72;4980636;28;24482;-82
2023/08/26 03:33:02;;;;;;;8.13;3.70;;;;;;;17.86;100.00;95526.50;4984485;28;24429;-83
2023/08/26 03:35:29;;;;;;;9.18;3.38;;;;;;;17.70;100.00;95523.69;4984209;28;24457;-83
2023/08/26 03:37:57;;;;;;;6.40;3.40;;;;;;;17.80;100.00;95519.25;4988511;28;24448;-82
2023/08/26 03:40:25;;;;;;;5.87;3.07;;;;;;;17.75;100.00;95519.69;4994226;28;24511;-82
2023/08/26 03:42:52;;;;;;;6.50;3.80;;;;;;;17.70;100.00;95518.44;4995993;28;24436;-83
2023/08/26 03:45:19;;;;;;;7.37;3.17;;;;;;;17.72;100.00;95517.31;4995021;28;25055;-83
2023/08/26 03:47:45;;;;;;;10.50;3.65;;;;;;;17.56;100.00;95525.00;4995268;28;24419;-83
2023/08/26 03:50:11;;;;;;;6.72;3.47;;;;;;;17.38;100.00;95517.91;4995521;28;24435;-83
2023/08/26 03:52:38;;;;;;;9.63;3.70;;;;;;;17.32;100.00;95525.53;4995210;28;24452;-83
2023/08/26 03:55:05;;;;;;;7.90;3.67;;;;;;;17.30;100.00;95530.88;4975728;28;24425;-82
2023/08/26 03:57:33;;;;;;;8.33;3.53;;;;;;;17.27;100.00;95548.66;4975354;28;24972;-84
2023/08/26 04:00:00;;;;;;;7.13;3.30;;;;;;;17.36;100.00;95548.63;4976006;28;24460;-84
2023/08/26 04:02:26;;;;;;;6.20;3.25;;;;;;;17.25;100.00;95559.28;4986019;28;24444;-83
2023/08/26 04:04:53;;;;;;;7.88;3.47;;;;;;;17.34;100.00;95563.66;4993618;28;24448;-83
2023/08/26 04:07:19;;;;;;;11.63;3.28;;;;;;;17.32;100.00;95552.50;4988879;28;25010;-82
2023/08/26 04:09:46;;;;;;;9.13;3.30;;;;;;;17.50;100.00;95555.22;4975431;28;24425;-83
2023/08/26 04:12:13;;;;;;;10.38;3.42;;;;;;;17.45;100.00;95548.75;4988423;28;24461;-83
2023/08/26 04:14:40;;;;;;;4.93;2.80;;;;;;;17.45;100.00;95556.59;4994744;28;24444;-82
2023/08/26 04:17:07;;;;;;;6.87;3.53;;;;;;;17.29;100.00;95550.19;4979358;28;24804;-82
2023/08/26 04:19:33;;;;;;;6.53;3.28;;;;;;;17.30;100.00;95554.44;4995074;28;24429;-82
2023/08/26 04:22:01;;;;;;;5.50;2.70;;;;;;;17.33;100.00;95558.56;4995018;28;24432;-83
2023/08/26 04:24:27;;;;;;;7.23;3.23;;;;;;;17.29;100.00;95555.41;4993977;28;24792;-82
2023/08/26 04:26:54;;;;;;;8.52;3.40;;;;;;;17.28;100.00;95552.91;4976969;28;24446;-83
2023/08/26 04:29:20;;;;;;;7.65;3.35;;;;;;;17.32;100.00;95552.50;4974830;28;24458;-83
2023/08/26 04:31:48;;;;;;;6.10;3.08;;;;;;;17.33;100.00;95564.63;4981213;28;24465;-83
2023/08/26 04:34:15;;;;;;;4.68;3.03;;;;;;;17.36;100.00;95564.34;4978475;28;24992;-83
2023/08/26 04:36:41;;;;;;;5.53;3.47;;;;;;;17.29;100.00;95558.03;4978875;28;24536;-83
2023/08/26 04:39:11;;;;;;;9.27;4.07;;;;;;;17.24;100.00;95556.78;4994236;28;24509;-83
2023/08/26 04:41:37;;;;;;;4.55;3.30;;;;;;;17.26;100.00;95560.09;4994476;28;24440;-83
2023/08/26 04:44:04;;;;;;;4.15;3.28;;;;;;;17.31;100.00;95565.72;4994608;28;24956;-83
2023/08/26 04:46:32;;;;;;;5.47;3.53;;;;;;;17.30;100.00;95567.53;4995183;28;24444;-86
2023/08/26 04:49:00;;;;;;;9.20;3.33;;;;;;;17.27;100.00;95569.59;4986570;28;24492;-83
2023/08/26 04:51:26;;;;;;;4.65;3.03;;;;;;;17.36;100.00;95569.59;4988313;28;24464;-83
2023/08/26 04:53:53;;;;;;;5.53;3.17;;;;;;;17.41;100.00;95575.19;4994833;28;24425;-83
2023/08/26 04:56:20;;;;;;;6.72;3.08;;;;;;;17.36;100.00;95581.84;4979877;28;24437;-83
2023/08/26 04:58:46;;;;;;;4.85;3.42;;;;;;;17.37;100.00;95578.25;4995496;28;24425;-83
2023/08/26 05:01:13;;;;;;;4.10;3.13;;;;;;;17.46;100.00;95585.25;4995746;28;24421;-83
2023/08/26 05:03:39;;;;;;;12.27;3.40;;;;;;;17.42;100.00;95599.59;4995977;28;24451;-82
2023/08/26 05:06:07;;;;;;;5.57;3.23;;;;;;;17.44;100.00;95595.03;4995421;28;24466;-81
2023/08/26 05:08:34;;;;;;;4.00;2.50;;;;;;;17.49;100.00;95598.06;4995025;28;24435;-83
2023/08/26 05:11:00;;;;;;;6.78;2.80;;;;;;;17.50;100.00;95596.25;4995318;28;24436;-83
2023/08/26 05:13:27;;;;;;;5.45;2.78;;;;;;;17.48;100.00;95601.66;4995646;28;24431;-82
2023/08/26 05:15:53;;;;;;;12.38;2.70;;;;;;;17.50;100.00;95597.09;4995741;28;24796;-83
2023/08/26 05:18:21;;;;;;;5.78;2.65;;;;;;;17.52;100.00;95595.16;4995352;28;24528;-84
2023/08/26 05:20:47;;;;;;;13.05;2.47;;;;;;;17.40;100.00;95594.50;4995496;28;24421;-83
2023/08/26 05:23:15;;;;;;;8.75;3.17;;;;;;;17.33;100.00;95603.06;4995354;28;24438;-84
2023/08/26 05:25:45;;;;;;;4.03;3.00;;;;;;;17.37;100.00;95605.25;4994869;28;24435;-85
2023/08/26 05:28:12;;;;;;;4.75;2.90;;;;;;;17.46;100.00;95598.31;4977029;28;24952;-85
2023/08/26 05:30:38;;;;;;;7.45;3.70;;;;;;;17.63;100.00;95594.97;4975494;28;24429;-83
2023/08/26 05:33:05;;;;;;;4.80;3.47;;;;;;;17.60;100.00;95608.34;4975865;28;24464;-83
2023/08/26 05:35:32;;;;;;;5.30;3.20;;;;;;;17.71;100.00;95596.88;4988253;28;24500;-83
2023/08/26 05:37:58;;;;;;;8.65;3.63;;;;;;;17.69;100.00;95603.22;4995264;28;24967;-84
2023/08/26 05:40:28;;;;;;;4.18;3.10;;;;;;;17.66;100.00;95610.41;4994170;28;24536;-83
2023/08/26 05:42:56;;;;;;;4.35;3.20;;;;;;;17.59;100.00;95603.25;4988591;28;24461;-82
2023/08/26 05:45:23;;;;;;;4.55;3.03;;;;;;;17.56;100.00;95606.16;4975762;28;24418;-82
2023/08/26 05:47:50;;;;;;;5.25;3.20;;;;;;;17.59;100.00;95614.56;4975435;28;24418;-83
2023/08/26 05:50:17;;;;;;;5.13;2.88;;;;;;;17.50;100.00;95615.44;4986754;28;24540;-84
2023/08/26 05:52:44;;;;;;;5.75;3.35;;;;;;;17.41;100.00;95614.47;4995328;28;24452;-82
2023/08/26 05:55:11;;;;;;;3.22;2.80;;;;;;;17.50;100.00;95609.34;4986838;28;24452;-83
2023/08/26 05:57:40;;;;;;;3.70;3.10;;;;;;;17.51;100.00;95611.00;4980990;28;24423;-83
2023/08/26 06:00:08;;;;;;;5.20;3.17;;;;;;;17.23;100.00;95610.94;4979955;28;24433;-82
2023/08/26 06:02:34;;;;;;;5.30;3.42;;;;;;;17.01;100.00;95603.41;4979223;28;24413;-86
2023/08/26 06:05:01;;;;;;;5.15;3.20;;;;;;;17.10;100.00;95598.16;4984175;28;24430;-83
2023/08/26 06:07:27;;;;;;;4.38;2.75;;;;;;;17.28;100.00;95605.28;4980707;28;25010;-82
2023/08/26 06:09:54;;;;;;;8.37;3.67;;;;;;;17.31;100.00;95611.03;4980857;28;24448;-82
2023/08/26 06:12:20;;;;;;;5.53;3.38;;;;;;;17.34;100.00;95625.66;4975138;28;25007;-83
2023/08/26 06:14:48;;;;;;;6.53;3.55;;;;;;;17.35;100.00;95628.16;4974979;28;24421;-82
2023/08/26 06:17:14;;;;;;;5.50;3.10;;;;;;;17.41;100.00;95621.50;4983234;28;24801;-82
2023/08/26 06:19:41;;;;;;;9.65;3.88;;;;;;;17.23;100.00;95623.19;4993864;28;24425;-82
2023/08/26 06:22:07;;;;;;;6.15;3.40;;;;;;;17.24;100.00;95625.66;4994379;28;24975;-84
2023/08/26 06:24:34;;;;;;;4.53;2.88;;;;;;;17.37;100.00;95614.91;4973970;28;24445;-83
2023/08/26 06:27:01;;;;;;;8.45;3.55;;;;;;;17.35;100.00;95619.44;4974310;28;24531;-82
2023/08/26 06:29:28;;;;;;;5.78;3.20;;;;;;;17.52;100.00;95613.47;4973742;28;24434;-82
2023/08/26 06:31:55;;;;;;;6.43;3.30;;;;;;;17.59;100.00;95619.78;4973721;28;24457;-82
2023/08/26 06:34:22;;;;;;;4.07;3.13;;;;;;;17.60;100.00;95625.84;4973446;28;24433;-82
2023/08/26 06:36:48;;;;;;;6.40;3.10;;;;;;;17.74;100.00;95638.50;4981884;28;24444;-82
2023/08/26 06:39:15;;;;;;;5.13;3.17;;;;;;;17.85;100.00;95620.00;4985686;28;25015;-82
2023/08/26 06:41:41;;;;;;;5.82;3.53;;;;;;;17.79;100.00;95625.00;4988848;28;24492;-82
2023/08/26 06:44:08;;;;;;;4.85;3.33;;;;;;;17.86;100.00;95605.94;4996159;28;24426;-81
2023/08/26 06:46:35;;;;;;;5.00;3.13;;;;;;;18.04;100.00;95602.53;4996210;28;24425;-81
2023/08/26 06:49:03;;;;;;;4.35;3.15;;;;;;;18.38;100.00;95603.56;4976815;28;24444;-80
2023/08/26 06:51:29;;;;;;;5.25;3.00;;;;;;;18.59;100.00;95612.97;4976716;28;24556;-80
2023/08/26 06:53:56;;;;;;;5.53;3.17;;;;;;;18.62;100.00;95616.13;4990280;28;25018;-80
2023/08/26 06:56:23;;;;;;;5.80;3.37;;;;;;;18.90;100.00;95625.72;4990943;28;24441;-80
2023/08/26 06:58:50;;;;;;;4.80;2.90;;;;;;;18.97;100.00;95624.97;4985950;28;24468;-80
2023/08/26 07:01:17;;;;;;;6.82;3.25;;;;;;;19.00;100.00;95626.47;4995920;28;24483;-81
2023/08/26 07:03:43;;;;;;;3.63;3.15;;;;;;;18.93;100.00;95626.25;4984955;28;24445;-81
2023/08/26 07:06:11;;;;;;;3.60;2.95;;;;;;;18.83;100.00;95630.75;4983733;28;24438;-80
2023/08/26 07:08:38;;;;;;;6.15;3.10;;;;;;;18.96;100.00;95631.19;4978153;28;25015;-80
2023/08/26 07:11:04;;;;;;;5.72;3.22;;;;;;;19.15;100.00;95632.81;4990698;28;24445;-80
2023/08/26 07:13:31;;;;;;;4.80;2.92;;;;;;;19.26;100.00;95629.97;4976049;28;24465;-80
2023/08/26 07:15:57;;;;;;;7.40;3.17;;;;;;;19.13;100.00;95629.53;4975628;28;24430;-80
2023/08/26 07:18:23;;;;;;;7.38;3.72;;;;;;;18.85;100.00;95628.81;4975615;28;24428;-81
2023/08/26 07:20:50;;;;;;;6.90;3.28;;;;;;;18.84;100.00;95620.13;4975656;28;24468;-80
2023/08/26 07:23:18;;;;;;;5.35;3.17;;;;;;;18.99;100.00;95615.16;4983041;28;24447;-81
2023/08/26 07:25:44;;;;;;;4.60;3.08;;;;;;;19.02;100.00;95603.50;4993057;28;24455;-80
2023/08/26 07:28:11;;;;;;;4.07;2.67;;;;;;;19.09;100.00;95605.38;4995669;28;24421;-80
2023/08/26 07:30:37;;;;;;;8.35;3.13;;;;;;;18.97;100.00;95600.53;4993403;28;25030;-80
2023/08/26 07:33:04;;;;;;;4.63;3.10;;;;;;;19.10;100.00;95595.72;4976897;28;24453;-82
2023/08/26 07:35:31;;;;;;;6.38;3.25;;;;;;;19.23;100.00;95597.94;4986928;28;25006;-82
2023/08/26 07:37:57;;;;;;;5.90;2.90;;;;;;;19.23;100.00;95601.38;4997739;28;24433;-81
2023/08/26 07:40:25;;;;;;;4.65;2.83;;;;;;;19.17;100.00;95601.16;4981470;28;24446;-81
2023/08/26 07:42:51;;;;;;;4.55;2.70;;;;;;;19.13;100.00;95597.19;4980708;28;24444;-81
2023/08/26 07:45:19;;;;;;;7.85;3.33;;;;;;;19.32;100.00;95591.78;4996747;28;24423;-82
2023/08/26 07:47:45;;;;;;;6.28;2.88;;;;;;;19.15;100.00;95588.19;4996210;28;24425;-81
2023/08/26 07:50:12;;;;;;;4.10;2.53;;;;;;;19.13;100.00;95594.56;4995412;28;24424;-81
2023/08/26 07:52:38;;;;;;;7.15;2.80;;;;;;;18.99;100.00;95598.59;4981253;28;25023;-80
2023/08/26 07:55:06;;;;;;;7.53;3.33;;;;;;;18.82;100.00;95600.25;4997196;28;24488;-81
2023/08/26 07:57:34;;;;;;;4.80;3.00;;;;;;;18.86;100.00;95606.84;4988833;28;24445;-81
2023/08/26 08:00:02;;;;;;;5.60;2.78;;;;;;;18.77;100.00;95603.31;4990255;28;24441;-81
2023/08/26 08:02:29;;;;;;;6.57;3.17;;;;;;;18.63;100.00;95604.63;4991078;28;24488;-80
2023/08/26 08:04:56;;;;;;;5.45;3.22;;;;;;;19.04;100.00;95615.50;4976852;28;24425;-79
2023/08/26 08:07:22;;;;;;;9.55;2.80;;;;;;;19.08;100.00;95595.84;4985313;28;24468;-79
2023/08/26 08:09:49;;;;;;;15.75;3.25;;;;;;;18.94;100.00;95599.03;4975997;28;24440;-79
2023/08/26 08:12:15;;;;;;;6.55;2.80;;;;;;;18.67;100.00;95606.97;4973575;28;24452;-78
2023/08/26 08:14:43;;;;;;;7.75;3.55;;;;;;;18.36;100.00;95604.72;4973517;28;24516;-78
2023/08/26 08:17:10;;;;;;;5.70;3.20;;;;;;;18.16;100.00;95595.31;4973446;28;24428;-79
2023/08/26 08:19:38;;;;;;;8.30;3.83;;;;;;;18.19;100.00;95597.63;4981421;28;24527;-79
2023/08/26 08:22:05;;;;;;;6.23;3.23;;;;;;;18.17;100.00;95596.94;4993311;28;24528;-79
2023/08/26 08:24:31;;;;;;;8.10;3.40;;;;;;;18.07;100.00;95597.00;4977269;28;24449;-79
2023/08/26 08:26:58;;;;;;;6.57;3.15;;;;;;;17.96;100.00;95598.03;4973153;28;24449;-78
2023/08/26 08:29:24;;;;;;;14.30;3.23;;;;;;;18.01;100.00;95594.97;4973743;28;24429;-78
2023/08/26 08:31:52;;;;;;;4.47;3.03;;;;;;;18.12;100.00;95603.44;4986803;23;24956;-80
2023/08/26 08:34:19;;;;;;;5.30;2.90;;;;;;;18.35;100.00;95592.56;4994206;28;24512;-80
2023/08/26 08:36:45;;;;;;;5.10;2.95;;;;;;;18.50;100.00;95596.34;5009986;28;24796;-81
2023/08/26 08:39:12;;;;;;;6.72;3.03;;;;;;;18.62;100.00;95605.63;5013520;28;24436;-81
2023/08/26 08:41:42;;;;;;;5.38;3.42;;;;;;;18.61;100.00;95601.34;5011648;28;24530;-81
2023/08/26 08:44:11;;;;;;;7.05;3.17;;;;;;;18.82;100.00;95613.38;4993262;28;24441;-80
2023/08/26 08:46:38;;;;;;;7.60;3.35;;;;;;;18.96;100.00;95614.63;4977361;28;24492;-79
2023/08/26 08:49:07;;;;;;;4.72;3.05;;;;;;;19.29;100.00;95613.91;4973735;28;24449;-79
2023/08/26 08:51:35;;;;;;;4.93;2.80;;;;;;;19.43;100.00;95615.16;4974123;28;24443;-79
2023/08/26 08:54:03;;;;;;;5.93;3.15;;;;;;;19.56;100.00;95619.97;4973605;28;24472;-78
2023/08/26 08:56:31;;;;;;;9.00;3.45;;;;;;;19.96;100.00;95618.59;4973397;28;24518;-80
2023/08/26 08:59:00;;;;;;;7.90;3.10;;;;;;;19.53;100.00;95628.97;4974626;28;24531;-81
2023/08/26 09:01:27;;;;;;;7.65;3.08;;;;;;;19.45;100.00;95636.00;4986302;28;24449;-80
2023/08/26 09:03:53;;;;;;;11.68;3.08;;;;;;;19.38;100.00;95632.34;4973393;28;24524;-81
2023/08/26 09:06:21;;;;;;;4.43;2.80;;;;;;;19.23;100.00;95626.81;4973166;28;25023;-80
2023/08/26 09:08:48;;;;;;;8.90;3.03;;;;;;;19.24;100.00;95612.69;4988220;28;24452;-79
2023/08/26 09:11:15;;;;;;;8.63;3.38;;;;;;;19.13;100.00;95607.69;4976451;28;24448;-81
2023/08/26 09:13:42;;;;;;;5.60;3.20;;;;;;;19.05;100.00;95601.41;4995882;28;24468;-80
2023/08/26 09:16:08;;;;;;;4.75;2.65;;;;;;;19.25;100.00;95599.44;4996233;28;24447;-82
2023/08/26 09:18:39;;;;;;;5.45;2.70;;;;;;;19.44;100.00;95600.22;4995118;28;24452;-77
2023/08/26 09:21:07;;;;;;;10.00;3.30;;;;;;;19.34;100.00;95614.25;4993939;28;24436;-78
2023/08/26 09:23:43;;;;;;;5.57;3.08;;;;;;;19.36;100.00;95602.78;4995543;28;24467;-80
2023/08/26 09:26:09;;;;;;;6.85;2.92;;;;;;;19.62;100.00;95608.88;4999554;28;24812;-81
2023/08/26 09:28:36;;;;;;;6.55;3.00;;;;;;;19.66;100.00;95610.22;4997225;28;24508;-80
2023/08/26 09:31:04;;;;;;;12.85;3.20;;;;;;;19.78;100.00;95614.22;4976873;28;24508;-82
2023/08/26 09:33:31;;;;;;;5.43;2.90;;;;;;;19.97;100.00;95610.53;4973036;28;25032;-78
2023/08/26 09:35:58;;;;;;;6.30;3.13;;;;;;;20.11;100.00;95614.38;4972673;28;25044;-78
2023/08/26 09:38:25;;;;;;;7.47;3.20;;;;;;;20.06;100.00;95612.22;4971785;28;24508;-76
2023/08/26 09:40:58;;;;;;;8.27;3.00;;;;;;;20.05;100.00;95609.72;4988869;28;24995;-78
2023/08/26 09:43:24;;;;;;;5.72;2.47;;;;;;;19.97;100.00;95601.81;4991346;28;24979;-79
2023/08/26 09:45:55;;;;;;;8.77;2.88;;;;;;;20.40;100.00;95587.66;4984435;28;24429;-74
2023/08/26 09:48:22;;;;;;;5.72;2.38;;;;;;;19.93;100.00;95592.59;4955144;28;24525;-77
2023/08/26 09:50:48;;;;;;;5.53;2.25;;;;;;;19.61;100.00;95595.88;4986129;28;24797;-77
2023/08/26 09:53:29;;;;;;;8.48;2.47;;;;;;;19.67;100.00;95597.91;4990902;28;24461;-77
2023/08/26 09:55:58;;;;;;;4.38;2.47;;;;;;;19.54;100.00;95588.63;4991268;28;24491;-77
2023/08/26 09:58:24;;;;;;;3.43;1.80;;;;;;;19.77;100.00;95577.59;4979394;28;24801;-77
2023/08/26 10:00:54;;;;;;;4.50;2.10;;;;;;;19.79;100.00;95570.38;4987372;28;24434;-77
2023/08/26 10:03:24;;;;;;;5.35;2.38;;;;;;;19.78;100.00;95581.88;4975133;28;24440;-78
2023/08/26 10:05:53;;;;;;;4.40;2.03;;;;;;;19.74;100.00;95565.59;4992113;28;24429;-78
2023/08/26 10:08:21;;;;;;;4.18;2.30;;;;;;;20.29;100.00;95561.66;4991950;28;24480;-78
2023/08/26 10:10:51;;;;;;;4.82;2.13;;;;;;;20.19;100.00;95574.13;4991890;28;24428;-78
2023/08/26 10:13:22;;;;;;;4.53;2.33;;;;;;;20.17;100.00;95574.31;4994269;28;24445;-78
2023/08/26 10:15:51;;;;;;;7.07;2.75;;;;;;;20.47;100.00;95577.31;4988957;28;24436;-78
2023/08/26 10:18:28;;;;;;;6.55;2.55;;;;;;;20.20;100.00;95575.75;4976086;28;24426;-78
2023/08/26 10:20:56;;;;;;;3.08;2.08;;;;;;;20.59;100.00;95575.22;4976447;28;24425;-78
2023/08/26 10:23:24;;;;;;;5.40;2.25;;;;;;;20.76;100.00;95584.75;4976231;28;24492;-78
2023/08/26 10:25:51;;;;;;;6.38;2.63;;;;;;;20.94;100.00;95593.31;4976767;28;24513;-78
2023/08/26 10:28:20;;;;;;;3.05;2.10;;;;;;;20.78;100.00;95599.41;4976117;28;24417;-78
2023/08/26 10:30:47;;;;;;;4.28;2.35;;;;;;;20.52;100.00;95602.19;4976204;28;24429;-78
2023/08/26 10:33:13;;;;;;;6.65;2.60;;;;;;;20.62;100.00;95596.78;4977712;28;24464;-78
2023/08/26 10:35:40;;;;;;;4.13;2.28;;;;;;;20.37;100.00;95592.41;4996993;28;24776;-79
2023/08/26 10:38:11;;;;;;;4.20;2.28;;;;;;;20.44;100.00;95586.34;4998606;28;24425;-79
2023/08/26 10:40:37;;;;;;;7.20;2.45;;;;;;;20.43;100.00;95584.72;4996222;28;24421;-78
2023/08/26 10:43:05;;;;;;;5.25;2.58;;;;;;;20.23;100.00;95588.59;4995618;28;24420;-78
2023/08/26 10:45:33;;;;;;;5.07;2.40;;;;;;;19.95;100.00;95583.59;4975939;28;24442;-77
2023/08/26 10:48:00;;;;;;;8.38;2.60;;;;;;;19.68;100.00;95599.53;4982810;28;24817;-77
2023/08/26 10:50:28;;;;;;;6.35;2.67;;;;;;;19.59;100.00;95596.03;4984690;28;24437;-77
2023/08/26 10:52:56;;;;;;;4.00;2.38;;;;;;;19.46;100.00;95598.25;4990023;28;24871;-77
2023/08/26 10:55:25;;;;;;;5.00;2.58;;;;;;;19.46;100.00;95596.44;4995216;28;24417;-77
2023/08/26 10:58:09;;;;;;;2.65;2.17;;;;;;;19.26;100.00;95595.81;4995422;28;24479;-77
2023/08/26 11:00:39;;;;;;;5.40;2.60;;;;;;;19.55;100.00;95585.00;4994563;28;24517;-77
2023/08/26 11:03:08;;;;;;;4.45;2.65;;;;;;;19.56;100.00;95586.66;4979527;28;24433;-77
2023/08/26 11:05:36;;;;;;;14.02;2.53;;;;;;;19.52;100.00;95581.88;4994071;28;24441;-77
2023/08/26 11:08:03;;;;;;;6.18;2.38;;;;;;;19.65;100.00;95581.47;4989072;28;24444;-77
2023/08/26 11:10:32;;;;;;;5.10;2.38;;;;;;;19.20;100.00;95585.94;4979080;28;24452;-77
2023/08/26 11:12:59;;;;;;;5.88;2.40;;;;;;;18.98;100.00;95592.50;4975383;28;24984;-78
2023/08/26 11:15:29;;;;;;;4.78;2.35;;;;;;;19.08;100.00;95582.72;4977933;28;24972;-78
2023/08/26 11:17:58;;;;;;;3.90;2.17;;;;;;;19.39;100.00;95577.03;4994283;28;24449;-78
2023/08/26 11:20:24;;;;;;;3.63;2.45;;;;;;;19.50;100.00;95575.94;4994709;28;24428;-78
2023/08/26 11:22:51;;;;;;;6.68;2.10;;;;;;;19.32;100.00;95581.28;4995384;28;24428;-77
2023/08/26 11:25:18;;;;;;;4.40;2.47;;;;;;;19.19;100.00;95592.16;4977785;28;24434;-77